Time;durP1;ratioP1;P1;durP2;ratioP2;P2;SDS_P1;SDS_P2;PMS_P1;PMS_P2;Temp;Humidity;BMP_temperature;BMP_pressure;BME280_temperature;BME280_humidity;BME280_pressure;Samples;Min_cycle;Max_cycle;Signal;HPM_P1;HPM_P2
2021/09/14 00:00:52;;;;;;;14.10;12.80;;;16.70;99.90;;;;;;4994914;28;20295;-66
2021/09/14 00:03:18;;;;;;;13.90;12.70;;;16.60;99.90;;;;;;4996256;28;20179;-66
2021/09/14 00:05:44;;;;;;;13.03;11.93;;;16.60;99.90;;;;;;4994974;28;20476;-66
2021/09/14 00:08:10;;;;;;;13.67;12.27;;;16.50;99.90;;;;;;5007804;28;20520;-66
2021/09/14 00:10:36;;;;;;;12.90;11.90;;;16.50;99.90;;;;;;5014784;28;20262;-66
2021/09/14 00:13:02;;;;;;;14.03;12.93;;;16.50;99.90;;;;;;5015680;28;20201;-65
2021/09/14 00:15:28;;;;;;;13.93;12.63;;;16.50;99.90;;;;;;5015186;28;20183;-71
2021/09/14 00:17:53;;;;;;;12.57;11.50;;;16.50;99.90;;;;;;5002033;28;20423;-66
2021/09/14 00:20:19;;;;;;;13.83;12.67;;;16.40;99.90;;;;;;4978395;28;20185;-66
2021/09/14 00:22:45;;;;;;;13.50;12.13;;;16.40;99.90;;;;;;4994881;28;20242;-66
2021/09/14 00:25:11;;;;;;;13.47;12.17;;;16.40;99.90;;;;;;4995699;28;20246;-66
2021/09/14 00:27:37;;;;;;;13.70;12.50;;;16.30;99.90;;;;;;4977462;28;20206;-66
2021/09/14 00:30:04;;;;;;;14.10;12.70;;;16.40;99.90;;;;;;4995614;28;20422;-66
2021/09/14 00:32:29;;;;;;;12.37;11.37;;;16.30;99.90;;;;;;4994837;28;20454;-72
2021/09/14 00:34:55;;;;;;;12.50;11.40;;;16.30;99.90;;;;;;4995126;28;20988;-66
2021/09/14 00:37:21;;;;;;;12.87;11.77;;;16.30;99.90;;;;;;4995511;28;20623;-66
2021/09/14 00:39:47;;;;;;;13.30;12.00;;;16.30;99.90;;;;;;4994194;28;20191;-66
2021/09/14 00:42:12;;;;;;;12.70;11.60;;;16.40;99.90;;;;;;4995405;28;20594;-66
2021/09/14 00:44:38;;;;;;;13.43;12.33;;;16.30;99.90;;;;;;4977247;28;20171;-66
2021/09/14 00:47:05;;;;;;;12.30;11.30;;;16.40;99.90;;;;;;4977498;28;20203;-66
2021/09/14 00:49:31;;;;;;;13.47;12.20;;;16.40;99.90;;;;;;4994859;28;20229;-72
2021/09/14 00:51:57;;;;;;;12.87;11.67;;;16.50;99.90;;;;;;4993899;28;20411;-66
2021/09/14 00:54:23;;;;;;;12.43;11.33;;;16.50;99.90;;;;;;4995154;28;20430;-66
2021/09/14 00:56:49;;;;;;;12.93;11.83;;;16.60;99.90;;;;;;4994202;28;20801;-66
2021/09/14 00:59:15;;;;;;;14.30;10.80;;;16.60;99.90;;;;;;4995135;28;20407;-66
2021/09/14 01:01:40;;;;;;;12.93;11.20;;;16.70;99.90;;;;;;4993739;28;20190;-66
2021/09/14 01:04:07;;;;;;;11.90;11.00;;;16.70;99.90;;;;;;4994769;28;20175;-66
2021/09/14 01:06:33;;;;;;;12.20;11.23;;;16.70;99.90;;;;;;4993904;28;20223;-72
2021/09/14 01:09:01;;;;;;;11.10;10.10;;;16.70;99.90;;;;;;4994587;28;20439;-66
2021/09/14 01:11:30;;;;;;;11.77;10.77;;;16.70;99.90;;;;;;4994585;28;20421;-66
2021/09/14 01:14:03;;;;;;;12.57;11.50;;;16.70;99.90;;;;;;4994371;28;20418;-66
2021/09/14 01:16:31;;;;;;;12.47;11.30;;;16.70;99.90;;;;;;4994265;28;20793;-66
2021/09/14 01:18:58;;;;;;;11.93;11.03;;;16.70;99.90;;;;;;4994552;28;20485;-66
2021/09/14 01:21:24;;;;;;;12.43;10.90;;;16.70;99.90;;;;;;4994623;28;20413;-66
2021/09/14 01:23:49;;;;;;;11.77;10.67;;;16.70;99.90;;;;;;4994097;28;20415;-66
2021/09/14 01:26:15;;;;;;;12.40;11.30;;;16.80;99.90;;;;;;4994584;28;20203;-66
2021/09/14 01:28:41;;;;;;;13.30;12.20;;;16.70;99.90;;;;;;4993785;28;20190;-66
2021/09/14 01:31:06;;;;;;;12.27;11.20;;;16.70;99.90;;;;;;4977049;28;20180;-67
2021/09/14 01:33:32;;;;;;;12.43;11.43;;;16.60;99.90;;;;;;4993924;28;20266;-72
2021/09/14 01:35:58;;;;;;;14.20;12.87;;;16.70;99.90;;;;;;4994105;28;20168;-66
2021/09/14 01:38:23;;;;;;;15.20;13.90;;;16.70;99.90;;;;;;4993846;28;20547;-66
2021/09/14 01:40:49;;;;;;;15.07;13.80;;;16.70;99.90;;;;;;4992989;28;20180;-66
2021/09/14 01:43:17;;;;;;;16.13;14.67;;;16.70;99.90;;;;;;4993609;28;20187;-66
2021/09/14 01:45:43;;;;;;;16.83;15.20;;;16.70;99.90;;;;;;4993384;28;20187;-66
2021/09/14 01:48:08;;;;;;;15.30;13.80;;;16.70;99.90;;;;;;4993710;28;20961;-66
2021/09/14 01:50:34;;;;;;;14.07;12.87;;;16.70;99.90;;;;;;4993642;28;20172;-72
2021/09/14 01:53:01;;;;;;;15.40;13.90;;;16.70;99.90;;;;;;4993831;28;20299;-66
2021/09/14 01:55:27;;;;;;;15.57;14.07;;;16.70;99.90;;;;;;4994065;28;20206;-66
2021/09/14 01:57:54;;;;;;;16.47;14.77;;;16.60;99.90;;;;;;4993234;28;20415;-66
2021/09/14 02:00:30;;;;;;;16.53;14.93;;;16.60;99.90;;;;;;4993996;28;20179;-66
2021/09/14 02:59:33;;;;;;;17.40;15.80;;;16.20;99.90;;;;;;4993299;28;20409;-66
2021/09/14 03:01:59;;;;;;;17.47;15.80;;;16.20;99.90;;;;;;4992187;28;20418;-66
2021/09/14 03:04:25;;;;;;;17.10;15.40;;;16.20;99.90;;;;;;4992196;28;20434;-66
2021/09/14 03:06:51;;;;;;;17.47;15.80;;;16.20;99.90;;;;;;4992152;28;20607;-66
2021/09/14 03:09:16;;;;;;;19.20;16.83;;;16.20;99.90;;;;;;4992540;28;20186;-66
2021/09/14 03:11:42;;;;;;;18.60;16.70;;;16.30;99.90;;;;;;4992049;28;20548;-66
2021/09/14 03:14:08;;;;;;;19.90;18.10;;;16.30;99.90;;;;;;4994010;28;20182;-66
2021/09/14 03:16:35;;;;;;;24.20;18.43;;;16.30;99.90;;;;;;4999325;28;20277;-66
2021/09/14 03:19:01;;;;;;;20.07;18.07;;;16.30;99.90;;;;;;4998545;28;20242;-66
2021/09/14 03:21:26;;;;;;;20.30;17.40;;;16.20;99.90;;;;;;4998715;28;20430;-66
2021/09/14 03:23:52;;;;;;;19.50;17.57;;;16.30;99.90;;;;;;4998166;28;20191;-66
2021/09/14 03:26:18;;;;;;;19.63;17.70;;;16.20;99.90;;;;;;4999198;28;20213;-66
2021/09/14 03:28:44;;;;;;;19.97;18.07;;;16.20;99.90;;;;;;4998466;28;20416;-66
2021/09/14 03:31:10;;;;;;;17.93;16.13;;;16.20;99.90;;;;;;4981440;28;20222;-66
2021/09/14 03:33:36;;;;;;;16.77;15.17;;;16.20;99.90;;;;;;4999041;28;20195;-66
2021/09/14 03:36:02;;;;;;;17.97;15.73;;;16.20;99.90;;;;;;4998148;28;20901;-66
2021/09/14 03:38:27;;;;;;;17.30;15.50;;;16.10;99.90;;;;;;4998875;28;20179;-66
2021/09/14 03:40:53;;;;;;;17.60;16.00;;;16.10;99.90;;;;;;4998373;28;20500;-66
2021/09/14 03:43:19;;;;;;;16.87;15.20;;;16.10;99.90;;;;;;4998826;28;20210;-66
2021/09/14 03:45:47;;;;;;;17.17;15.57;;;16.10;99.90;;;;;;4998355;28;20622;-66
2021/09/14 03:48:13;;;;;;;16.20;14.80;;;16.10;99.90;;;;;;4998988;28;20222;-67
2021/09/14 03:50:40;;;;;;;18.50;16.87;;;16.10;99.90;;;;;;4998987;28;20460;-71
2021/09/14 03:53:05;;;;;;;19.30;17.33;;;16.10;99.90;;;;;;4998213;28;20409;-66
2021/09/14 03:55:31;;;;;;;19.17;17.43;;;16.10;99.90;;;;;;4998769;28;20524;-66
2021/09/14 03:57:57;;;;;;;18.17;16.67;;;16.10;99.90;;;;;;4997936;28;20194;-66
2021/09/14 04:00:23;;;;;;;20.57;18.67;;;16.10;99.90;;;;;;4998980;28;20539;-66
2021/09/14 04:05:32;;;;;;;19.60;17.80;;;16.10;99.90;;;;;;4998777;28;20472;-67
2021/09/14 04:10:38;;;;;;;18.47;16.70;;;16.00;99.90;;;;;;4998597;28;20777;-66
2021/09/14 04:13:04;;;;;;;17.13;15.40;;;16.00;99.90;;;;;;4998130;28;20398;-67
2021/09/14 04:15:29;;;;;;;18.63;15.10;;;15.90;99.90;;;;;;4998674;28;20832;-67
2021/09/14 04:17:55;;;;;;;17.33;15.73;;;16.00;99.90;;;;;;4997503;28;20449;-67
2021/09/14 04:20:21;;;;;;;17.87;16.27;;;15.90;99.90;;;;;;4980961;28;20276;-66
2021/09/14 04:22:47;;;;;;;16.00;14.50;;;15.90;99.90;;;;;;4998023;28;20172;-67
2021/09/14 04:25:13;;;;;;;15.57;13.97;;;16.00;99.90;;;;;;4998022;28;20441;-66
2021/09/14 04:27:39;;;;;;;19.33;14.83;;;15.90;99.90;;;;;;4995752;28;20210;-66
2021/09/14 04:30:06;;;;;;;16.00;14.40;;;15.80;99.90;;;;;;4994379;28;20432;-66
2021/09/14 04:32:32;;;;;;;15.90;14.50;;;15.90;99.90;;;;;;4994668;28;20187;-67
2021/09/14 04:34:58;;;;;;;15.90;14.40;;;15.90;99.90;;;;;;4994493;28;20416;-67
2021/09/14 04:37:24;;;;;;;15.83;14.43;;;15.80;99.90;;;;;;4995515;28;20430;-66
2021/09/14 04:39:51;;;;;;;15.10;13.73;;;15.80;99.90;;;;;;4994441;28;20492;-67
2021/09/14 04:42:17;;;;;;;15.57;14.00;;;15.70;99.90;;;;;;4995446;28;20421;-66
2021/09/14 04:44:42;;;;;;;16.73;14.73;;;15.70;99.90;;;;;;4977983;28;20421;-70
2021/09/14 04:47:08;;;;;;;19.70;17.83;;;15.70;99.90;;;;;;4994448;28;20214;-66
2021/09/14 04:49:34;;;;;;;20.40;18.20;;;15.60;99.90;;;;;;4994678;28;20924;-66
2021/09/14 04:52:05;;;;;;;18.97;17.00;;;15.60;99.90;;;;;;4994140;28;20509;-66
2021/09/14 04:54:31;;;;;;;19.17;17.23;;;15.60;99.90;;;;;;4994955;28;20446;-66
2021/09/14 04:56:57;;;;;;;18.83;16.87;;;15.60;99.90;;;;;;4994066;28;20453;-66
2021/09/14 04:59:22;;;;;;;19.17;17.37;;;15.70;99.90;;;;;;4978035;28;20475;-66
2021/09/14 05:01:48;;;;;;;18.70;16.97;;;15.70;99.90;;;;;;4993573;28;20430;-67
2021/09/14 05:04:14;;;;;;;19.20;16.60;;;15.70;99.90;;;;;;4994920;28;20186;-68
2021/09/14 05:06:40;;;;;;;17.43;15.93;;;15.70;99.90;;;;;;4994440;28;20253;-66
2021/09/14 05:09:05;;;;;;;17.57;15.87;;;15.70;99.90;;;;;;4993360;28;20561;-66
2021/09/14 05:11:31;;;;;;;16.93;15.43;;;15.70;99.90;;;;;;4994319;28;20187;-67
2021/09/14 05:13:57;;;;;;;18.03;15.70;;;15.70;99.90;;;;;;4994032;28;20538;-67
2021/09/14 05:16:22;;;;;;;18.47;16.50;;;15.70;99.90;;;;;;4994096;28;20177;-67
2021/09/14 05:18:49;;;;;;;22.97;20.77;;;15.70;99.90;;;;;;4984812;28;20682;-72
2021/09/14 05:21:15;;;;;;;20.63;19.03;;;15.70;99.90;;;;;;4994714;28;20179;-67
2021/09/14 05:23:40;;;;;;;20.73;18.63;;;15.70;99.90;;;;;;4994648;28;20418;-67
2021/09/14 05:26:07;;;;;;;16.73;15.23;;;15.80;99.90;;;;;;4993621;28;20385;-67
2021/09/14 05:28:35;;;;;;;17.00;15.17;;;15.70;99.90;;;;;;4994288;28;20241;-67
2021/09/14 05:31:02;;;;;;;16.57;15.07;;;15.80;99.90;;;;;;4993341;28;20523;-67
2021/09/14 05:33:29;;;;;;;15.40;14.00;;;15.80;99.90;;;;;;4976895;28;20437;-67
2021/09/14 05:35:56;;;;;;;15.20;13.70;;;15.80;99.90;;;;;;4993758;28;20429;-67
2021/09/14 05:38:24;;;;;;;18.10;15.67;;;15.80;99.90;;;;;;4993914;28;20448;-67
2021/09/14 05:40:54;;;;;;;19.13;17.13;;;15.80;99.90;;;;;;4993379;28;20933;-72
2021/09/14 05:43:21;;;;;;;19.17;15.30;;;15.80;99.90;;;;;;4976833;28;20402;-67
2021/09/14 05:45:47;;;;;;;20.60;17.00;;;15.80;99.90;;;;;;4993881;28;20456;-73
2021/09/14 05:48:13;;;;;;;19.70;17.77;;;15.90;99.90;;;;;;4993649;28;20465;-67
2021/09/14 05:50:39;;;;;;;19.30;16.30;;;15.80;99.90;;;;;;4994041;28;20646;-67
2021/09/14 05:53:05;;;;;;;20.07;18.03;;;15.90;99.90;;;;;;4992688;28;20179;-67
2021/09/14 05:55:30;;;;;;;22.93;17.60;;;15.90;99.90;;;;;;4994156;28;20429;-67
2021/09/14 05:57:56;;;;;;;18.97;17.10;;;15.90;99.90;;;;;;4992443;28;20197;-68
2021/09/14 06:00:22;;;;;;;19.50;17.50;;;16.00;99.90;;;;;;4992964;28;20182;-67
2021/09/14 06:02:51;;;;;;;18.50;16.50;;;16.10;99.90;;;;;;4991280;28;20262;-68
2021/09/14 06:05:16;;;;;;;22.83;17.67;;;16.10;99.90;;;;;;4993899;28;20468;-67
2021/09/14 06:07:42;;;;;;;19.60;17.70;;;16.10;99.90;;;;;;4994085;28;20556;-68
2021/09/14 06:10:08;;;;;;;21.53;19.57;;;16.20;99.90;;;;;;4993534;28;20190;-67
2021/09/14 06:12:34;;;;;;;19.10;17.17;;;16.20;99.90;;;;;;4994552;28;20178;-69
2021/09/14 06:15:00;;;;;;;19.43;17.60;;;16.20;99.90;;;;;;4975488;28;20431;-68
2021/09/14 06:17:25;;;;;;;20.53;18.63;;;16.30;99.90;;;;;;4990093;28;20194;-68
2021/09/14 06:19:51;;;;;;;22.03;19.10;;;16.40;99.90;;;;;;4975744;28;20182;-70
2021/09/14 06:22:20;;;;;;;20.00;17.87;;;16.40;99.90;;;;;;4975954;28;20286;-67
2021/09/14 06:24:49;;;;;;;20.13;18.17;;;16.50;99.90;;;;;;4975426;28;20292;-67
2021/09/14 06:27:15;;;;;;;21.83;19.67;;;16.50;99.90;;;;;;4992731;28;20478;-67
2021/09/14 06:29:42;;;;;;;20.47;18.33;;;16.50;99.90;;;;;;4992664;28;20442;-67
2021/09/14 06:32:08;;;;;;;18.17;16.30;;;16.60;99.90;;;;;;4992668;28;20426;-67
2021/09/14 06:34:35;;;;;;;19.87;17.70;;;16.60;99.90;;;;;;4993286;28;20513;-67
2021/09/14 06:37:01;;;;;;;24.83;19.97;;;16.60;99.90;;;;;;4992234;28;20439;-68
2021/09/14 06:39:27;;;;;;;19.33;17.30;;;16.60;99.90;;;;;;4993543;28;20423;-67
2021/09/14 06:41:53;;;;;;;20.67;18.57;;;16.70;99.90;;;;;;4992632;28;20403;-70
2021/09/14 06:44:18;;;;;;;23.50;18.37;;;16.70;99.90;;;;;;4992923;28;20520;-68
2021/09/14 06:46:44;;;;;;;22.10;19.90;;;16.70;99.90;;;;;;4992955;28;20509;-68
2021/09/14 06:49:10;;;;;;;18.93;17.13;;;16.70;99.90;;;;;;4990770;28;20262;-70
2021/09/14 06:51:36;;;;;;;19.30;16.07;;;16.80;99.90;;;;;;4992552;28;20271;-70
2021/09/14 06:54:02;;;;;;;19.60;17.60;;;16.80;99.90;;;;;;4992068;28;20662;-70
2021/09/14 06:56:28;;;;;;;18.27;16.37;;;16.80;99.90;;;;;;4992859;28;20423;-71
2021/09/14 06:58:54;;;;;;;19.20;17.50;;;16.80;99.90;;;;;;4992070;28;21016;-70
2021/09/14 07:01:21;;;;;;;16.10;14.50;;;16.90;99.90;;;;;;4992208;28;20283;-70
2021/09/14 07:03:47;;;;;;;17.40;15.63;;;16.90;99.90;;;;;;4989555;28;20418;-70
2021/09/14 07:06:14;;;;;;;18.57;16.77;;;17.10;99.90;;;;;;4992388;28;20533;-70
2021/09/14 07:08:39;;;;;;;17.90;16.30;;;17.00;99.90;;;;;;4992258;28;20534;-71
2021/09/14 07:11:05;;;;;;;18.00;16.40;;;17.00;99.90;;;;;;4991700;28;20517;-71
2021/09/14 07:13:31;;;;;;;16.50;14.30;;;17.10;99.90;;;;;;4992921;28;20207;-71
2021/09/14 07:15:57;;;;;;;17.00;15.30;;;17.20;99.90;;;;;;4992108;28;20183;-72
2021/09/14 07:18:23;;;;;;;18.03;15.40;;;17.20;99.90;;;;;;4975920;28;20176;-72
2021/09/14 07:20:48;;;;;;;20.67;16.20;;;17.20;99.90;;;;;;4992952;28;20628;-73
2021/09/14 07:23:14;;;;;;;17.90;16.20;;;17.30;99.90;;;;;;4992778;28;20430;-70
2021/09/14 07:25:41;;;;;;;19.90;17.80;;;17.30;99.90;;;;;;4992957;28;20235;-71
2021/09/14 07:28:08;;;;;;;18.30;16.50;;;17.40;99.90;;;;;;4992346;28;20218;-70
2021/09/14 07:30:35;;;;;;;20.03;17.90;;;17.40;99.90;;;;;;4992984;28;20922;-70
2021/09/14 07:33:01;;;;;;;19.93;16.90;;;17.50;99.90;;;;;;4992156;28;20757;-70
2021/09/14 07:35:30;;;;;;;23.07;18.50;;;17.60;99.90;;;;;;4992846;28;20617;-71
2021/09/14 07:37:56;;;;;;;20.33;18.47;;;17.70;99.90;;;;;;4992126;28;20502;-71
2021/09/14 07:40:23;;;;;;;23.83;17.97;;;17.70;99.90;;;;;;4992773;28;20433;-71
2021/09/14 07:42:49;;;;;;;20.20;18.10;;;17.80;99.90;;;;;;4975348;28;20929;-71
2021/09/14 07:45:15;;;;;;;21.20;16.90;;;17.80;99.90;;;;;;4992181;28;20427;-71
2021/09/14 07:47:40;;;;;;;17.67;15.80;;;17.90;99.90;;;;;;4992864;28;20214;-70
2021/09/14 07:50:07;;;;;;;19.37;17.33;;;17.90;99.90;;;;;;4991623;28;20179;-70
2021/09/14 07:52:33;;;;;;;18.77;16.80;;;18.00;99.90;;;;;;4992176;28;20175;-71
2021/09/14 07:54:59;;;;;;;19.10;16.40;;;18.00;99.90;;;;;;4992356;28;20451;-71
2021/09/14 07:57:24;;;;;;;17.93;16.13;;;18.10;99.90;;;;;;4992539;28;20434;-71
2021/09/14 07:59:50;;;;;;;16.70;15.23;;;18.10;99.90;;;;;;4992794;28;20180;-70
2021/09/14 08:02:16;;;;;;;19.13;17.20;;;18.20;99.90;;;;;;4977934;28;20183;-70
2021/09/14 08:04:42;;;;;;;19.00;17.10;;;18.20;99.90;;;;;;4996238;28;20306;-70
2021/09/14 08:07:07;;;;;;;17.00;15.30;;;18.30;99.90;;;;;;4995315;28;20203;-71
2021/09/14 08:09:33;;;;;;;17.30;15.50;;;18.50;99.90;;;;;;4996172;28;20200;-70
2021/09/14 08:11:59;;;;;;;14.63;13.20;;;18.60;99.90;;;;;;4977791;28;20211;-70
2021/09/14 08:14:26;;;;;;;14.83;13.40;;;18.70;99.90;;;;;;4996301;28;20581;-71
2021/09/14 08:16:52;;;;;;;16.00;14.50;;;18.70;99.90;;;;;;4996311;28;20434;-70
2021/09/14 08:19:17;;;;;;;16.23;14.43;;;18.70;99.90;;;;;;4995685;28;20456;-70
2021/09/14 08:21:43;;;;;;;13.33;12.10;;;18.80;99.90;;;;;;4996164;28;20422;-71
2021/09/14 08:24:11;;;;;;;16.23;12.30;;;18.80;99.90;;;;;;4995601;28;20167;-71
2021/09/14 08:26:37;;;;;;;12.90;11.80;;;18.80;99.90;;;;;;4996054;28;20203;-71
2021/09/14 08:29:04;;;;;;;14.50;13.20;;;18.90;99.90;;;;;;4995385;28;20843;-71
2021/09/14 08:31:30;;;;;;;15.27;12.53;;;19.00;99.90;;;;;;4995741;28;20931;-71
2021/09/14 08:33:56;;;;;;;13.90;12.53;;;19.00;99.90;;;;;;4995826;28;20407;-71
2021/09/14 08:36:22;;;;;;;12.83;11.73;;;19.00;99.90;;;;;;4995539;28;20180;-71
2021/09/14 08:38:48;;;;;;;13.10;11.80;;;19.10;99.90;;;;;;4995533;28;20509;-71
2021/09/14 08:41:15;;;;;;;12.60;11.60;;;19.20;99.90;;;;;;4995244;28;20526;-71
2021/09/14 08:43:44;;;;;;;12.23;11.13;;;19.30;99.90;;;;;;4995793;28;20230;-71
2021/09/14 08:46:10;;;;;;;12.57;11.40;;;19.40;99.90;;;;;;4995084;28;20415;-71
2021/09/14 08:48:36;;;;;;;12.40;11.40;;;19.50;99.90;;;;;;4995708;28;20470;-71
2021/09/14 08:51:06;;;;;;;12.53;11.30;;;19.70;99.90;;;;;;4995049;28;20407;-71
2021/09/14 08:53:34;;;;;;;11.87;10.80;;;19.80;99.90;;;;;;4995357;28;21054;-71
2021/09/14 08:56:01;;;;;;;12.53;10.90;;;19.90;99.90;;;;;;4994734;28;20419;-71
2021/09/14 08:58:27;;;;;;;11.60;10.50;;;20.00;99.90;;;;;;4995709;28;20419;-72
2021/09/14 09:00:53;;;;;;;13.00;11.80;;;20.00;99.90;;;;;;4995220;28;20470;-71
2021/09/14 09:03:29;;;;;;;12.00;11.10;;;20.10;99.90;;;;;;4994540;28;20203;-71
2021/09/14 09:05:57;;;;;;;15.67;14.40;;;20.10;99.90;;;;;;4995421;28;20477;-71
2021/09/14 09:08:26;;;;;;;12.13;11.03;;;20.20;99.90;;;;;;4995248;28;20466;-71
2021/09/14 09:10:59;;;;;;;12.47;11.33;;;20.30;99.90;;;;;;4995392;28;20427;-71
2021/09/14 09:13:28;;;;;;;15.37;14.17;;;20.30;99.90;;;;;;4994358;28;20423;-71
2021/09/14 09:15:54;;;;;;;11.70;10.77;;;20.40;99.90;;;;;;4995109;28;20418;-71
2021/09/14 09:18:19;;;;;;;11.87;10.80;;;20.60;99.90;;;;;;4994542;28;20415;-70
2021/09/14 09:20:48;;;;;;;13.27;12.20;;;20.80;99.90;;;;;;4995097;28;20222;-71
2021/09/14 09:23:25;;;;;;;11.30;10.40;;;20.90;99.90;;;;;;4994493;28;20214;-70
2021/09/14 09:26:02;;;;;;;12.70;11.50;;;21.20;99.90;;;;;;4995045;28;20557;-70
2021/09/14 09:28:28;;;;;;;11.87;10.70;;;21.30;99.90;;;;;;4995072;28;20828;-71
2021/09/14 09:30:57;;;;;;;9.93;9.13;;;21.60;99.90;;;;;;4994959;28;20415;-70
2021/09/14 09:33:30;;;;;;;10.17;9.27;;;21.80;99.90;;;;;;4994337;28;20179;-70
2021/09/14 09:36:00;;;;;;;11.83;10.93;;;22.10;99.90;;;;;;4995021;28;21062;-73
2021/09/14 09:38:27;;;;;;;11.23;10.37;;;22.30;99.90;;;;;;4994619;28;20419;-70
2021/09/14 09:40:54;;;;;;;12.23;11.20;;;22.50;99.90;;;;;;4994317;28;20494;-70
2021/09/14 09:43:31;;;;;;;10.97;9.90;;;22.80;99.80;;;;;;4993671;28;20435;-70
2021/09/14 09:46:18;;;;;;;12.00;10.80;;;23.00;99.30;;;;;;4993976;28;20469;-70
2021/09/14 09:48:44;;;;;;;9.80;8.90;;;23.30;99.60;;;;;;4994376;28;20411;-71
2021/09/14 09:51:10;;;;;;;9.57;8.77;;;23.60;98.00;;;;;;4993919;28;20468;-71
2021/09/14 09:53:38;;;;;;;10.30;9.43;;;23.80;98.20;;;;;;4994578;28;20179;-71
2021/09/14 09:56:05;;;;;;;8.93;8.30;;;24.00;97.80;;;;;;4993713;28;20523;-71
2021/09/14 09:58:31;;;;;;;11.23;10.30;;;24.20;97.60;;;;;;4994301;28;20404;-71
2021/09/14 10:01:25;;;;;;;9.43;8.83;;;24.40;96.00;;;;;;4994026;28;20407;-71
2021/09/14 10:04:17;;;;;;;9.87;9.30;;;24.50;95.60;;;;;;4990923;28;20802;-71
2021/09/14 10:06:55;;;;;;;9.60;8.90;;;24.70;96.00;;;;;;4976848;28;20482;-71
2021/09/14 10:09:28;;;;;;;9.87;9.17;;;24.90;97.20;;;;;;4993446;28;20976;-70
2021/09/14 10:11:55;;;;;;;8.70;8.00;;;25.10;96.80;;;;;;4994230;28;20493;-70
2021/09/14 10:14:21;;;;;;;8.93;8.03;;;25.30;94.50;;;;;;4993471;28;20494;-71
2021/09/14 10:16:48;;;;;;;9.20;8.60;;;25.40;92.80;;;;;;4994078;28;20466;-70
2021/09/14 10:19:28;;;;;;;10.10;8.73;;;25.50;94.00;;;;;;4975887;28;20594;-71
2021/09/14 10:22:04;;;;;;;9.20;8.60;;;25.60;93.70;;;;;;4960439;28;20426;-71
2021/09/14 10:24:32;;;;;;;10.40;9.60;;;25.50;94.40;;;;;;4993785;28;20427;-71
2021/09/14 10:27:13;;;;;;;9.40;8.80;;;25.50;94.40;;;;;;4993884;28;20508;-71
2021/09/14 10:29:40;;;;;;;8.20;7.70;;;25.50;93.90;;;;;;4993529;28;20414;-72
2021/09/14 10:32:11;;;;;;;8.47;7.87;;;25.40;94.70;;;;;;4975798;28;20974;-71
2021/09/14 10:34:43;;;;;;;10.20;9.50;;;25.60;95.10;;;;;;4976628;28;20446;-70
2021/09/14 10:37:11;;;;;;;8.17;7.60;;;25.50;93.20;;;;;;4993144;28;20497;-71
2021/09/14 10:39:42;;;;;;;8.60;7.87;;;25.70;94.00;;;;;;4993446;28;20403;-71
2021/09/14 10:42:19;;;;;;;8.90;8.30;;;25.90;93.70;;;;;;4992923;28;20753;-70
2021/09/14 10:44:47;;;;;;;8.97;8.37;;;26.30;95.00;;;;;;4993209;28;20914;-71
2021/09/14 10:47:22;;;;;;;8.20;7.50;;;26.70;93.80;;;;;;4992540;28;20462;-71
2021/09/14 10:49:57;;;;;;;7.97;7.40;;;26.80;92.40;;;;;;4993490;28;20485;-70
2021/09/14 10:52:35;;;;;;;8.37;7.80;;;26.80;90.30;;;;;;4992987;28;20421;-70
2021/09/14 10:55:14;;;;;;;7.57;6.97;;;26.80;91.10;;;;;;4993426;28;20422;-71
2021/09/14 10:57:49;;;;;;;8.00;7.40;;;26.90;91.80;;;;;;4993407;28;20914;-71
2021/09/14 11:00:25;;;;;;;8.00;7.50;;;27.00;91.20;;;;;;4992716;28;20398;-71
2021/09/14 11:03:01;;;;;;;8.90;7.87;;;27.30;91.70;;;;;;4993584;28;20403;-70
2021/09/14 11:05:36;;;;;;;7.47;6.97;;;27.50;91.50;;;;;;4991997;28;20494;-70
2021/09/14 11:08:07;;;;;;;7.37;6.90;;;27.70;90.70;;;;;;4993080;28;20549;-70
2021/09/14 11:10:35;;;;;;;6.87;6.47;;;27.80;90.30;;;;;;4992966;28;20405;-70
2021/09/14 11:13:01;;;;;;;8.03;7.53;;;27.80;89.80;;;;;;4993156;28;20450;-69
2021/09/14 11:15:27;;;;;;;6.97;6.47;;;27.70;86.30;;;;;;4992583;28;20515;-71
2021/09/14 11:17:53;;;;;;;6.07;5.60;;;27.70;89.40;;;;;;4975146;28;20531;-70
2021/09/14 11:20:25;;;;;;;8.80;8.10;;;27.60;88.10;;;;;;4992231;28;20274;-70
2021/09/14 11:22:52;;;;;;;7.60;7.00;;;27.50;88.80;;;;;;4993204;28;20409;-70
2021/09/14 11:25:26;;;;;;;7.07;6.67;;;27.50;89.50;;;;;;4992124;28;20482;-69
2021/09/14 11:28:03;;;;;;;8.03;7.60;;;27.50;87.40;;;;;;4992732;28;20521;-69
2021/09/14 11:30:31;;;;;;;10.07;6.57;;;27.40;87.10;;;;;;4992757;28;20769;-69
2021/09/14 11:32:59;;;;;;;7.63;7.13;;;27.30;85.90;;;;;;4993033;28;20419;-69
2021/09/14 11:35:30;;;;;;;7.50;7.10;;;27.20;85.30;;;;;;4992860;28;20799;-69
2021/09/14 11:38:02;;;;;;;7.37;6.87;;;27.20;87.50;;;;;;4996956;28;20497;-70
2021/09/14 11:40:29;;;;;;;9.63;7.30;;;27.30;90.50;;;;;;4996149;28;20421;-70
2021/09/14 11:42:56;;;;;;;7.50;6.80;;;27.40;88.60;;;;;;4996917;28;20523;-70
2021/09/14 11:45:27;;;;;;;7.57;7.07;;;27.50;89.00;;;;;;4996032;28;20422;-70
2021/09/14 11:47:53;;;;;;;7.63;7.13;;;27.50;90.10;;;;;;4996914;28;20453;-71
2021/09/14 11:50:30;;;;;;;7.60;7.07;;;27.60;90.60;;;;;;4996186;28;20410;-71
2021/09/14 11:53:12;;;;;;;7.97;7.47;;;27.70;89.40;;;;;;4996749;28;20482;-70
2021/09/14 11:55:47;;;;;;;7.67;7.17;;;27.90;90.00;;;;;;4996862;28;20481;-70
2021/09/14 11:58:30;;;;;;;7.97;7.47;;;27.90;87.00;;;;;;4995755;28;20399;-70
2021/09/14 12:01:01;;;;;;;6.70;6.40;;;28.00;87.10;;;;;;4996623;28;20391;-71
2021/09/14 12:03:45;;;;;;;8.77;8.27;;;28.00;87.60;;;;;;4996043;28;20434;-70
2021/09/14 12:06:20;;;;;;;8.40;7.90;;;27.90;83.40;;;;;;4995260;28;20481;-70
2021/09/14 12:08:45;;;;;;;8.70;7.90;;;27.90;86.90;;;;;;4996511;28;20411;-70
2021/09/14 12:11:21;;;;;;;7.90;7.40;;;27.90;88.40;;;;;;4995762;28;20413;-72
2021/09/14 12:13:53;;;;;;;7.00;6.60;;;28.10;88.60;;;;;;4996481;28;20214;-72
2021/09/14 12:16:25;;;;;;;6.73;6.23;;;28.10;85.30;;;;;;4995805;28;20477;-71
2021/09/14 12:18:51;;;;;;;7.73;7.33;;;28.10;84.50;;;;;;4996422;28;20391;-72
2021/09/14 12:21:16;;;;;;;7.57;7.07;;;28.10;85.50;;;;;;4978487;28;20418;-71
2021/09/14 12:23:42;;;;;;;8.10;7.60;;;28.00;86.30;;;;;;4996193;28;20184;-71
2021/09/14 12:26:21;;;;;;;8.73;8.20;;;28.00;86.60;;;;;;4995832;28;20694;-71
2021/09/14 12:28:48;;;;;;;7.30;6.90;;;28.00;89.20;;;;;;4996101;28;20199;-71
2021/09/14 12:31:14;;;;;;;7.80;7.20;;;28.00;89.20;;;;;;4995045;28;20418;-70
2021/09/14 12:33:40;;;;;;;8.73;8.13;;;28.00;87.90;;;;;;4996171;28;20949;-71
2021/09/14 12:36:06;;;;;;;8.17;7.57;;;27.90;84.70;;;;;;4996055;28;20501;-71
2021/09/14 12:38:31;;;;;;;7.73;7.03;;;27.80;84.40;;;;;;4977839;28;20522;-70
2021/09/14 12:40:57;;;;;;;7.80;7.27;;;27.60;82.10;;;;;;4995859;28;20176;-71
2021/09/14 12:43:23;;;;;;;8.50;8.00;;;27.60;84.50;;;;;;4994959;28;20180;-69
2021/09/14 12:45:48;;;;;;;10.93;10.10;;;27.50;83.80;;;;;;4995652;28;20171;-70
2021/09/14 12:48:14;;;;;;;8.27;7.77;;;27.50;85.30;;;;;;4993391;28;20298;-71
2021/09/14 12:50:40;;;;;;;7.10;6.60;;;27.40;86.30;;;;;;4995529;28;20187;-70
2021/09/14 12:53:06;;;;;;;6.43;6.03;;;27.40;84.80;;;;;;4978151;28;20213;-71
2021/09/14 12:55:36;;;;;;;6.73;6.10;;;27.30;84.90;;;;;;4994971;28;20412;-71
2021/09/14 12:58:03;;;;;;;7.30;6.70;;;27.30;84.00;;;;;;4995838;28;20182;-71
2021/09/14 13:00:29;;;;;;;6.47;6.10;;;27.20;83.60;;;;;;4994483;28;20407;-71
2021/09/14 13:02:54;;;;;;;6.53;6.03;;;26.90;83.40;;;;;;4995578;28;20764;-71
2021/09/14 13:05:20;;;;;;;6.33;6.03;;;26.90;83.50;;;;;;4994326;28;20458;-71
2021/09/14 13:07:46;;;;;;;8.47;7.97;;;26.80;84.40;;;;;;4994972;28;20299;-71
2021/09/14 13:10:13;;;;;;;7.20;6.77;;;26.80;83.50;;;;;;4995247;28;20259;-71
2021/09/14 13:12:46;;;;;;;7.90;7.40;;;26.70;83.20;;;;;;4995305;28;20207;-71
2021/09/14 13:17:57;;;;;;;7.37;6.90;;;26.70;83.90;;;;;;4995280;28;20454;-71
2021/09/14 13:20:23;;;;;;;5.80;5.50;;;26.70;85.50;;;;;;4994554;28;20414;-71
2021/09/14 13:22:48;;;;;;;5.60;5.30;;;26.70;86.10;;;;;;4995119;28;20668;-71
2021/09/14 13:25:14;;;;;;;6.80;6.30;;;26.60;81.20;;;;;;4994429;28;20620;-71
2021/09/14 13:27:40;;;;;;;6.87;6.57;;;26.50;82.80;;;;;;4994990;28;20298;-71
2021/09/14 13:30:06;;;;;;;6.13;5.83;;;26.40;83.10;;;;;;4961275;28;20179;-72
2021/09/14 13:32:32;;;;;;;6.63;6.23;;;26.40;82.00;;;;;;4994081;28;20613;-71
2021/09/14 13:34:57;;;;;;;5.80;5.50;;;26.40;82.50;;;;;;4994828;28;20450;-71
2021/09/14 13:37:23;;;;;;;6.30;6.00;;;26.40;83.50;;;;;;4993666;28;20366;-71
2021/09/14 13:39:49;;;;;;;6.20;5.83;;;26.40;84.00;;;;;;4994024;28;20579;-71